sensor_id;sensor_type;location;lat;lon;timestamp;pressure;altitude;pressure_sealevel;temperature;humidity
65760;BME280;52496;51.082;5.066;2024-02-15T00:01:05;101658.75;;;12.26;100.00
65760;BME280;52496;51.082;5.066;2024-02-15T00:03:36;101661.44;;;12.26;100.00
65760;BME280;52496;51.082;5.066;2024-02-15T00:06:06;101662.09;;;12.28;100.00
65760;BME280;52496;51.082;5.066;2024-02-15T00:08:37;101660.25;;;12.29;100.00
65760;BME280;52496;51.082;5.066;2024-02-15T00:11:08;101661.25;;;12.28;100.00
65760;BME280;52496;51.082;5.066;2024-02-15T00:13:42;101650.34;;;12.29;100.00
65760;BME280;52496;51.082;5.066;2024-02-15T00:16:14;101661.06;;;12.29;100.00
65760;BME280;52496;51.082;5.066;2024-02-15T00:18:45;101657.41;;;12.30;100.00
65760;BME280;52496;51.082;5.066;2024-02-15T00:21:15;101660.09;;;12.30;100.00
65760;BME280;52496;51.082;5.066;2024-02-15T00:23:46;101654.72;;;12.30;100.00
65760;BME280;52496;51.082;5.066;2024-02-15T00:26:16;101649.34;;;12.30;100.00
65760;BME280;52496;51.082;5.066;2024-02-15T00:28:47;101658.22;;;12.31;100.00
65760;BME280;52496;51.082;5.066;2024-02-15T00:31:18;101654.88;;;12.29;100.00
65760;BME280;52496;51.082;5.066;2024-02-15T00:33:49;101657.41;;;12.30;100.00
65760;BME280;52496;51.082;5.066;2024-02-15T00:36:19;101659.41;;;12.28;100.00
65760;BME280;52496;51.082;5.066;2024-02-15T00:38:50;101657.75;;;12.27;100.00
65760;BME280;52496;51.082;5.066;2024-02-15T00:41:21;101649.03;;;12.25;100.00
65760;BME280;52496;51.082;5.066;2024-02-15T00:43:52;101644.03;;;12.22;100.00
65760;BME280;52496;51.082;5.066;2024-02-15T00:46:22;101638.19;;;12.19;100.00
65760;BME280;52496;51.082;5.066;2024-02-15T00:48:53;101636.00;;;12.14;100.00
65760;BME280;52496;51.082;5.066;2024-02-15T00:51:23;101630.50;;;12.15;100.00
65760;BME280;52496;51.082;5.066;2024-02-15T00:53:53;101629.66;;;12.15;100.00
65760;BME280;52496;51.082;5.066;2024-02-15T00:56:24;101630.31;;;12.17;100.00
65760;BME280;52496;51.082;5.066;2024-02-15T00:58:54;101625.97;;;12.16;100.00
65760;BME280;52496;51.082;5.066;2024-02-15T01:01:25;101636.88;;;12.14;100.00
65760;BME280;52496;51.082;5.066;2024-02-15T01:03:55;101625.47;;;12.12;100.00
65760;BME280;52496;51.082;5.066;2024-02-15T01:06:26;101628.31;;;12.11;100.00
65760;BME280;52496;51.082;5.066;2024-02-15T01:08:56;101631.00;;;12.11;100.00
65760;BME280;52496;51.082;5.066;2024-02-15T01:11:27;101628.16;;;12.12;100.00
65760;BME280;52496;51.082;5.066;2024-02-15T01:14:02;101624.66;;;12.12;100.00
65760;BME280;52496;51.082;5.066;2024-02-15T01:16:32;101622.97;;;12.11;100.00
65760;BME280;52496;51.082;5.066;2024-02-15T01:19:05;101622.97;;;12.11;100.00
65760;BME280;52496;51.082;5.066;2024-02-15T01:21:36;101626.50;;;12.11;100.00
65760;BME280;52496;51.082;5.066;2024-02-15T01:24:06;101620.94;;;12.13;100.00
65760;BME280;52496;51.082;5.066;2024-02-15T01:26:37;101616.41;;;12.13;100.00
65760;BME280;52496;51.082;5.066;2024-02-15T01:29:08;101617.09;;;12.15;100.00
65760;BME280;52496;51.082;5.066;2024-02-15T01:31:42;101608.84;;;12.17;100.00
65760;BME280;52496;51.082;5.066;2024-02-15T01:34:13;101611.38;;;12.19;100.00
65760;BME280;52496;51.082;5.066;2024-02-15T01:36:43;101611.84;;;12.22;100.00
65760;BME280;52496;51.082;5.066;2024-02-15T01:39:14;101605.09;;;12.26;100.00
65760;BME280;52496;51.082;5.066;2024-02-15T01:41:48;101599.38;;;12.29;100.00
65760;BME280;52496;51.082;5.066;2024-02-15T01:44:18;101600.06;;;12.31;100.00
65760;BME280;52496;51.082;5.066;2024-02-15T01:46:50;101585.63;;;12.32;100.00
65760;BME280;52496;51.082;5.066;2024-02-15T01:49:25;101598.41;;;12.30;100.00
65760;BME280;52496;51.082;5.066;2024-02-15T01:51:58;101594.69;;;12.31;100.00
65760;BME280;52496;51.082;5.066;2024-02-15T01:54:32;101586.84;;;12.30;100.00
65760;BME280;52496;51.082;5.066;2024-02-15T01:57:03;101583.97;;;12.31;100.00
65760;BME280;52496;51.082;5.066;2024-02-15T01:59:34;101576.94;;;12.30;100.00
65760;BME280;52496;51.082;5.066;2024-02-15T02:02:08;101579.63;;;12.30;100.00
65760;BME280;52496;51.082;5.066;2024-02-15T02:04:41;101568.22;;;12.28;100.00
65760;BME280;52496;51.082;5.066;2024-02-15T02:07:12;101574.78;;;12.26;100.00
65760;BME280;52496;51.082;5.066;2024-02-15T02:09:46;101573.94;;;12.25;100.00
65760;BME280;52496;51.082;5.066;2024-02-15T02:12:16;101570.59;;;12.23;100.00
65760;BME280;52496;51.082;5.066;2024-02-15T02:14:48;101568.94;;;12.22;100.00
65760;BME280;52496;51.082;5.066;2024-02-15T02:17:19;101569.78;;;12.23;100.00
65760;BME280;52496;51.082;5.066;2024-02-15T02:19:50;101568.13;;;12.22;100.00
65760;BME280;52496;51.082;5.066;2024-02-15T02:22:20;101559.03;;;12.23;100.00
65760;BME280;52496;51.082;5.066;2024-02-15T02:25:07;101557.84;;;12.25;100.00
65760;BME280;52496;51.082;5.066;2024-02-15T02:27:38;101560.38;;;12.27;100.00
65760;BME280;52496;51.082;5.066;2024-02-15T02:30:14;101556.84;;;12.26;100.00
65760;BME280;52496;51.082;5.066;2024-02-15T02:32:49;101563.06;;;12.27;100.00
65760;BME280;52496;51.082;5.066;2024-02-15T02:35:19;101565.53;;;12.28;100.00
65760;BME280;52496;51.082;5.066;2024-02-15T02:37:51;101566.22;;;12.30;100.00
65760;BME280;52496;51.082;5.066;2024-02-15T02:40:23;101552.63;;;12.32;100.00
65760;BME280;52496;51.082;5.066;2024-02-15T02:42:55;101560.50;;;12.33;100.00
65760;BME280;52496;51.082;5.066;2024-02-15T02:45:32;101549.75;;;12.33;100.00
65760;BME280;52496;51.082;5.066;2024-02-15T02:48:03;101550.75;;;12.32;100.00
65760;BME280;52496;51.082;5.066;2024-02-15T02:50:34;101552.63;;;12.32;100.00
65760;BME280;52496;51.082;5.066;2024-02-15T02:53:04;101545.41;;;12.32;100.00
65760;BME280;52496;51.082;5.066;2024-02-15T02:55:35;101554.09;;;12.34;100.00
65760;BME280;52496;51.082;5.066;2024-02-15T02:58:06;101542.72;;;12.32;100.00
65760;BME280;52496;51.082;5.066;2024-02-15T03:00:37;101550.59;;;12.34;100.00
65760;BME280;52496;51.082;5.066;2024-02-15T03:03:09;101549.75;;;12.33;100.00
65760;BME280;52496;51.082;5.066;2024-02-15T03:05:40;101559.47;;;12.34;100.00
65760;BME280;52496;51.082;5.066;2024-02-15T03:08:13;101551.44;;;12.34;100.00
65760;BME280;52496;51.082;5.066;2024-02-15T03:10:44;101553.09;;;12.35;100.00
65760;BME280;52496;51.082;5.066;2024-02-15T03:13:14;101557.63;;;12.35;100.00
65760;BME280;52496;51.082;5.066;2024-02-15T03:15:45;101552.09;;;12.36;100.00
65760;BME280;52496;51.082;5.066;2024-02-15T03:18:17;101555.59;;;12.37;100.00
65760;BME280;52496;51.082;5.066;2024-02-15T03:20:48;101547.34;;;12.38;100.00
65760;BME280;52496;51.082;5.066;2024-02-15T03:23:18;101554.56;;;12.38;100.00
65760;BME280;52496;51.082;5.066;2024-02-15T03:25:49;101560.59;;;12.40;100.00
65760;BME280;52496;51.082;5.066;2024-02-15T03:28:19;101555.25;;;12.40;100.00
65760;BME280;52496;51.082;5.066;2024-02-15T03:30:51;101560.78;;;12.38;100.00
65760;BME280;52496;51.082;5.066;2024-02-15T03:33:22;101555.59;;;12.37;100.00
65760;BME280;52496;51.082;5.066;2024-02-15T03:35:56;101558.44;;;12.35;100.00
65760;BME280;52496;51.082;5.066;2024-02-15T03:38:29;101554.47;;;12.31;100.00
65760;BME280;52496;51.082;5.066;2024-02-15T03:41:01;101558.34;;;12.29;100.00
65760;BME280;52496;51.082;5.066;2024-02-15T03:43:32;101552.13;;;12.28;100.00
65760;BME280;52496;51.082;5.066;2024-02-15T03:46:04;101544.44;;;12.25;100.00
65760;BME280;52496;51.082;5.066;2024-02-15T03:48:34;101553.69;;;12.23;100.00
65760;BME280;52496;51.082;5.066;2024-02-15T03:51:05;101561.91;;;12.21;100.00
65760;BME280;52496;51.082;5.066;2024-02-15T03:53:36;101543.50;;;12.18;100.00
65760;BME280;52496;51.082;5.066;2024-02-15T03:56:07;101547.19;;;12.17;100.00
65760;BME280;52496;51.082;5.066;2024-02-15T03:58:39;101542.84;;;12.16;100.00
65760;BME280;52496;51.082;5.066;2024-02-15T04:01:09;101532.47;;;12.13;100.00
65760;BME280;52496;51.082;5.066;2024-02-15T04:03:41;101519.59;;;12.08;100.00
65760;BME280;52496;51.082;5.066;2024-02-15T04:06:11;101516.25;;;12.06;100.00
65760;BME280;52496;51.082;5.066;2024-02-15T04:08:42;101509.59;;;12.02;100.00
65760;BME280;52496;51.082;5.066;2024-02-15T04:11:12;101513.28;;;12.01;100.00
65760;BME280;52496;51.082;5.066;2024-02-15T04:13:44;101516.97;;;12.00;100.00
65760;BME280;52496;51.082;5.066;2024-02-15T04:16:14;101518.16;;;11.98;100.00
65760;BME280;52496;51.082;5.066;2024-02-15T04:18:46;101525.19;;;11.99;100.00
65760;BME280;52496;51.082;5.066;2024-02-15T04:21:17;101514.44;;;11.99;100.00
65760;BME280;52496;51.082;5.066;2024-02-15T04:23:49;101513.63;;;11.98;100.00
65760;BME280;52496;51.082;5.066;2024-02-15T04:26:22;101512.78;;;11.98;100.00
65760;BME280;52496;51.082;5.066;2024-02-15T04:28:56;101505.78;;;11.97;100.00
65760;BME280;52496;51.082;5.066;2024-02-15T04:31:28;101507.63;;;11.96;100.00
65760;BME280;52496;51.082;5.066;2024-02-15T04:33:58;101504.28;;;11.94;100.00
65760;BME280;52496;51.082;5.066;2024-02-15T04:36:29;101500.78;;;11.93;100.00
65760;BME280;52496;51.082;5.066;2024-02-15T04:39:04;101503.59;;;11.92;100.00
65760;BME280;52496;51.082;5.066;2024-02-15T04:41:34;101498.44;;;11.90;100.00
65760;BME280;52496;51.082;5.066;2024-02-15T04:44:05;101504.78;;;11.89;100.00
65760;BME280;52496;51.082;5.066;2024-02-15T04:46:38;101503.13;;;11.88;100.00
65760;BME280;52496;51.082;5.066;2024-02-15T04:49:11;101495.28;;;11.87;100.00
65760;BME280;52496;51.082;5.066;2024-02-15T04:51:41;101495.28;;;11.87;100.00
65760;BME280;52496;51.082;5.066;2024-02-15T04:54:12;101495.44;;;11.85;100.00
65760;BME280;52496;51.082;5.066;2024-02-15T04:56:43;101500.66;;;11.87;100.00
65760;BME280;52496;51.082;5.066;2024-02-15T04:59:13;101497.09;;;11.86;100.00
65760;BME280;52496;51.082;5.066;2024-02-15T05:01:47;101488.25;;;11.86;100.00
65760;BME280;52496;51.082;5.066;2024-02-15T05:04:19;101494.44;;;11.86;100.00
65760;BME280;52496;51.082;5.066;2024-02-15T05:06:50;101497.09;;;11.86;100.00
65760;BME280;52496;51.082;5.066;2024-02-15T05:09:21;101494.44;;;11.86;100.00
65760;BME280;52496;51.082;5.066;2024-02-15T05:11:53;101484.72;;;11.85;100.00
65760;BME280;52496;51.082;5.066;2024-02-15T05:14:23;101503.50;;;11.85;100.00
65760;BME280;52496;51.082;5.066;2024-02-15T05:16:54;101499.13;;;11.84;100.00
65760;BME280;52496;51.082;5.066;2024-02-15T05:19:24;101498.13;;;11.85;100.00
65760;BME280;52496;51.082;5.066;2024-02-15T05:21:55;101505.16;;;11.86;100.00
65760;BME280;52496;51.082;5.066;2024-02-15T05:24:25;101508.84;;;11.85;100.00
65760;BME280;52496;51.082;5.066;2024-02-15T05:26:56;101506.34;;;11.84;100.00
65760;BME280;52496;51.082;5.066;2024-02-15T05:29:27;101509.69;;;11.86;100.00
65760;BME280;52496;51.082;5.066;2024-02-15T05:31:58;101518.75;;;11.85;100.00
65760;BME280;52496;51.082;5.066;2024-02-15T05:34:29;101516.06;;;11.85;100.00
65760;BME280;52496;51.082;5.066;2024-02-15T05:36:59;101514.38;;;11.84;100.00
65760;BME280;52496;51.082;5.066;2024-02-15T05:39:30;101511.53;;;11.85;100.00
65760;BME280;52496;51.082;5.066;2024-02-15T05:42:00;101512.53;;;11.84;100.00
65760;BME280;52496;51.082;5.066;2024-02-15T05:44:31;101510.00;;;11.83;100.00
65760;BME280;52496;51.082;5.066;2024-02-15T05:47:01;101495.78;;;11.82;100.00
65760;BME280;52496;51.082;5.066;2024-02-15T05:49:32;101482.38;;;11.82;100.00
65760;BME280;52496;51.082;5.066;2024-02-15T05:52:03;101485.25;;;11.81;100.00
65760;BME280;52496;51.082;5.066;2024-02-15T05:54:33;101470.97;;;11.80;100.00
65760;BME280;52496;51.082;5.066;2024-02-15T05:57:04;101467.47;;;11.80;100.00
65760;BME280;52496;51.082;5.066;2024-02-15T05:59:35;101465.00;;;11.78;100.00
65760;BME280;52496;51.082;5.066;2024-02-15T06:02:06;101467.66;;;11.78;100.00
65760;BME280;52496;51.082;5.066;2024-02-15T06:04:40;101465.97;;;11.77;100.00
65760;BME280;52496;51.082;5.066;2024-02-15T06:07:11;101463.31;;;11.77;100.00
65760;BME280;52496;51.082;5.066;2024-02-15T06:09:41;101456.28;;;11.76;100.00
65760;BME280;52496;51.082;5.066;2024-02-15T06:12:12;101456.28;;;11.76;100.00
65760;BME280;52496;51.082;5.066;2024-02-15T06:14:43;101454.63;;;11.75;100.00
65760;BME280;52496;51.082;5.066;2024-02-15T06:17:13;101437.69;;;11.75;100.00
65760;BME280;52496;51.082;5.066;2024-02-15T06:19:44;101450.25;;;11.74;100.00
65760;BME280;52496;51.082;5.066;2024-02-15T06:22:15;101445.91;;;11.73;100.00
65760;BME280;52496;51.082;5.066;2024-02-15T06:24:46;101437.22;;;11.71;100.00
65760;BME280;52496;51.082;5.066;2024-02-15T06:27:16;101447.94;;;11.71;100.00
65760;BME280;52496;51.082;5.066;2024-02-15T06:29:47;101439.91;;;11.71;100.00
65760;BME280;52496;51.082;5.066;2024-02-15T06:32:37;101444.25;;;11.72;100.00
65760;BME280;52496;51.082;5.066;2024-02-15T06:35:26;101433.53;;;11.72;100.00
65760;BME280;52496;51.082;5.066;2024-02-15T06:38:15;101438.91;;;11.72;100.00
65760;BME280;52496;51.082;5.066;2024-02-15T06:41:04;101438.91;;;11.72;100.00
65760;BME280;52496;51.082;5.066;2024-02-15T06:43:35;101431.84;;;11.71;100.00
65760;BME280;52496;51.082;5.066;2024-02-15T06:46:06;101440.91;;;11.70;100.00
65760;BME280;52496;51.082;5.066;2024-02-15T06:48:38;101448.13;;;11.69;100.00
65760;BME280;52496;51.082;5.066;2024-02-15T06:51:08;101439.25;;;11.69;100.00
65760;BME280;52496;51.082;5.066;2024-02-15T06:53:43;101444.63;;;11.69;100.00
65760;BME280;52496;51.082;5.066;2024-02-15T06:56:13;101448.13;;;11.69;100.00
65760;BME280;52496;51.082;5.066;2024-02-15T06:58:44;101438.22;;;11.70;100.00
65760;BME280;52496;51.082;5.066;2024-02-15T07:01:15;101440.91;;;11.70;100.00
65760;BME280;52496;51.082;5.066;2024-02-15T07:03:46;101437.22;;;11.71;100.00
65760;BME280;52496;51.082;5.066;2024-02-15T07:06:17;101430.00;;;11.71;100.00
65760;BME280;52496;51.082;5.066;2024-02-15T07:08:48;101431.84;;;11.71;100.00
65760;BME280;52496;51.082;5.066;2024-02-15T07:11:21;101432.03;;;11.69;100.00
65760;BME280;52496;51.082;5.066;2024-02-15T07:13:52;101428.53;;;11.69;100.00
65760;BME280;52496;51.082;5.066;2024-02-15T07:37:26;101447.78;;;11.73;100.00
65760;BME280;52496;51.082;5.066;2024-02-15T07:39:57;101448.41;;;11.75;100.00
65760;BME280;52496;51.082;5.066;2024-02-15T07:42:28;101441.03;;;11.77;100.00
65760;BME280;52496;51.082;5.066;2024-02-15T07:44:58;101447.72;;;11.81;100.00
65760;BME280;52496;51.082;5.066;2024-02-15T07:47:29;101446.38;;;11.85;100.00
65760;BME280;52496;51.082;5.066;2024-02-15T07:50:00;101458.59;;;11.87;100.00
65760;BME280;52496;51.082;5.066;2024-02-15T07:52:30;101462.78;;;11.90;100.00
65760;BME280;52496;51.082;5.066;2024-02-15T07:55:01;101462.56;;;11.91;100.00
65760;BME280;52496;51.082;5.066;2024-02-15T07:57:38;101461.56;;;11.92;100.00
65760;BME280;52496;51.082;5.066;2024-02-15T08:00:09;101463.25;;;11.93;100.00
65760;BME280;52496;51.082;5.066;2024-02-15T08:02:41;101455.84;;;11.96;100.00
65760;BME280;52496;51.082;5.066;2024-02-15T08:05:12;101455.84;;;11.96;100.00
65760;BME280;52496;51.082;5.066;2024-02-15T08:07:44;101452.16;;;11.97;100.00
65760;BME280;52496;51.082;5.066;2024-02-15T08:10:15;101452.78;;;11.99;100.00
65760;BME280;52496;51.082;5.066;2024-02-15T08:12:46;101455.13;;;12.02;100.00
65760;BME280;52496;51.082;5.066;2024-02-15T08:15:19;101458.13;;;12.07;100.00
65760;BME280;52496;51.082;5.066;2024-02-15T08:17:49;101455.75;;;12.12;100.00
65760;BME280;52496;51.082;5.066;2024-02-15T08:20:20;101450.47;;;12.19;100.00
65760;BME280;52496;51.082;5.066;2024-02-15T08:22:54;101447.25;;;12.23;100.00
65760;BME280;52496;51.082;5.066;2024-02-15T08:25:24;101441.16;;;12.29;100.00
65760;BME280;52496;51.082;5.066;2024-02-15T08:27:55;101441.47;;;12.34;100.00
65760;BME280;52496;51.082;5.066;2024-02-15T08:30:26;101438.06;;;12.40;100.00
65760;BME280;52496;51.082;5.066;2024-02-15T08:32:57;101430.47;;;12.44;100.00
65760;BME280;52496;51.082;5.066;2024-02-15T08:35:28;101427.63;;;12.46;100.00
65760;BME280;52496;51.082;5.066;2024-02-15T08:37:58;101421.53;;;12.52;100.00
65760;BME280;52496;51.082;5.066;2024-02-15T08:40:29;101420.94;;;12.56;100.00
65760;BME280;52496;51.082;5.066;2024-02-15T08:42:59;101425.41;;;12.64;100.00
65760;BME280;52496;51.082;5.066;2024-02-15T08:45:30;101422.00;;;12.70;100.00
65760;BME280;52496;51.082;5.066;2024-02-15T08:48:00;101433.03;;;12.75;100.00
65760;BME280;52496;51.082;5.066;2024-02-15T08:50:34;101431.25;;;12.82;100.00
65760;BME280;52496;51.082;5.066;2024-02-15T08:53:05;101432.19;;;12.90;100.00
65760;BME280;52496;51.082;5.066;2024-02-15T08:55:38;101437.63;;;12.96;100.00
65760;BME280;52496;51.082;5.066;2024-02-15T08:58:09;101429.41;;;12.98;100.00
65760;BME280;52496;51.082;5.066;2024-02-15T09:00:41;101435.06;;;13.03;100.00
65760;BME280;52496;51.082;5.066;2024-02-15T09:03:15;101429.13;;;13.07;100.00
65760;BME280;52496;51.082;5.066;2024-02-15T09:05:45;101424.19;;;13.11;100.00
65760;BME280;52496;51.082;5.066;2024-02-15T09:08:15;101425.31;;;13.17;100.00
65760;BME280;52496;51.082;5.066;2024-02-15T09:10:50;101430.75;;;13.23;100.00
65760;BME280;52496;51.082;5.066;2024-02-15T09:13:22;101425.69;;;13.28;100.00
65760;BME280;52496;51.082;5.066;2024-02-15T09:15:53;101429.94;;;13.38;100.00
65760;BME280;52496;51.082;5.066;2024-02-15T09:18:23;101428.34;;;13.43;100.00
65760;BME280;52496;51.082;5.066;2024-02-15T09:20:54;101426.41;;;13.52;100.00
65760;BME280;52496;51.082;5.066;2024-02-15T09:23:25;101422.75;;;13.60;100.00
65760;BME280;52496;51.082;5.066;2024-02-15T09:25:56;101432.56;;;13.67;100.00
65760;BME280;52496;51.082;5.066;2024-02-15T09:28:26;101426.69;;;13.79;100.00
65760;BME280;52496;51.082;5.066;2024-02-15T09:30:57;101429.06;;;13.88;100.00
65760;BME280;52496;51.082;5.066;2024-02-15T09:33:29;101426.03;;;13.98;100.00
65760;BME280;52496;51.082;5.066;2024-02-15T09:36:00;101426.16;;;14.11;100.00
65760;BME280;52496;51.082;5.066;2024-02-15T09:38:30;101430.38;;;14.20;100.00
65760;BME280;52496;51.082;5.066;2024-02-15T09:41:02;101429.03;;;14.31;100.00
65760;BME280;52496;51.082;5.066;2024-02-15T09:43:34;101426.81;;;14.41;100.00
65760;BME280;52496;51.082;5.066;2024-02-15T09:46:04;101434.75;;;14.50;100.00
65760;BME280;52496;51.082;5.066;2024-02-15T09:48:37;101427.78;;;14.55;100.00
65760;BME280;52496;51.082;5.066;2024-02-15T09:51:11;101438.38;;;14.63;100.00
65760;BME280;52496;51.082;5.066;2024-02-15T09:53:42;101435.75;;;14.70;100.00
65760;BME280;52496;51.082;5.066;2024-02-15T09:56:15;101433.72;;;14.79;100.00
65760;BME280;52496;51.082;5.066;2024-02-15T09:58:46;101430.88;;;14.87;100.00
65760;BME280;52496;51.082;5.066;2024-02-15T10:01:20;101431.56;;;14.96;100.00
65760;BME280;52496;51.082;5.066;2024-02-15T10:03:52;101426.44;;;15.07;100.00
65760;BME280;52496;51.082;5.066;2024-02-15T10:06:23;101428.13;;;15.15;100.00
65760;BME280;52496;51.082;5.066;2024-02-15T10:08:53;101420.09;;;15.22;100.00
65760;BME280;52496;51.082;5.066;2024-02-15T10:11:24;101430.28;;;15.33;100.00
65760;BME280;52496;51.082;5.066;2024-02-15T10:14:10;101426.19;;;15.44;100.00
65760;BME280;52496;51.082;5.066;2024-02-15T10:16:40;101431.78;;;15.49;100.00
65760;BME280;52496;51.082;5.066;2024-02-15T10:19:12;101420.81;;;15.57;100.00
65760;BME280;52496;51.082;5.066;2024-02-15T10:21:42;101429.19;;;15.69;100.00
65760;BME280;52496;51.082;5.066;2024-02-15T10:24:13;101423.81;;;15.82;100.00
65760;BME280;52496;51.082;5.066;2024-02-15T10:26:44;101426.31;;;15.90;100.00
65760;BME280;52496;51.082;5.066;2024-02-15T10:29:19;101426.13;;;15.98;100.00
65760;BME280;52496;51.082;5.066;2024-02-15T10:31:59;101420.72;;;16.05;100.00
65760;BME280;52496;51.082;5.066;2024-02-15T10:34:30;101418.44;;;16.09;100.00
65760;BME280;52496;51.082;5.066;2024-02-15T10:37:11;101412.22;;;16.15;100.00
65760;BME280;52496;51.082;5.066;2024-02-15T10:39:42;101420.31;;;16.21;100.00
65760;BME280;52496;51.082;5.066;2024-02-15T10:42:12;101414.31;;;16.26;100.00
65760;BME280;52496;51.082;5.066;2024-02-15T10:44:43;101408.50;;;16.29;100.00
65760;BME280;52496;51.082;5.066;2024-02-15T10:47:16;101399.34;;;16.30;100.00
65760;BME280;52496;51.082;5.066;2024-02-15T10:49:50;101401.84;;;16.38;100.00
65760;BME280;52496;51.082;5.066;2024-02-15T10:52:21;101399.94;;;16.45;100.00
65760;BME280;52496;51.082;5.066;2024-02-15T10:55:04;101395.16;;;16.54;100.00
65760;BME280;52496;51.082;5.066;2024-02-15T10:57:37;101392.28;;;16.56;100.00
65760;BME280;52496;51.082;5.066;2024-02-15T11:00:11;101394.75;;;16.57;100.00
65760;BME280;52496;51.082;5.066;2024-02-15T11:03:04;101392.88;;;16.58;100.00
65760;BME280;52496;51.082;5.066;2024-02-15T11:05:38;101385.41;;;16.60;100.00
65760;BME280;52496;51.082;5.066;2024-02-15T11:08:10;101383.31;;;16.62;100.00
65760;BME280;52496;51.082;5.066;2024-02-15T11:10:42;101371.25;;;16.64;100.00
65760;BME280;52496;51.082;5.066;2024-02-15T11:13:13;101369.56;;;16.70;100.00
65760;BME280;52496;51.082;5.066;2024-02-15T11:15:45;101367.31;;;16.67;100.00
65760;BME280;52496;51.082;5.066;2024-02-15T11:18:45;101367.31;;;16.67;100.00
65760;BME280;52496;51.082;5.066;2024-02-15T11:21:26;101364.59;;;16.67;100.00
65760;BME280;52496;51.082;5.066;2024-02-15T11:24:28;101357.13;;;16.69;100.00
65760;BME280;52496;51.082;5.066;2024-02-15T11:27:00;101357.94;;;16.69;100.00
65760;BME280;52496;51.082;5.066;2024-02-15T11:30:00;101355.88;;;16.71;100.00
65760;BME280;52496;51.082;5.066;2024-02-15T11:35:24;101340.69;;;16.84;100.00
65760;BME280;52496;51.082;5.066;2024-02-15T11:37:58;101339.19;;;16.94;100.00
65760;BME280;52496;51.082;5.066;2024-02-15T11:46:26;101318.06;;;17.23;100.00
65760;BME280;52496;51.082;5.066;2024-02-15T11:49:01;101319.47;;;17.32;100.00
65760;BME280;52496;51.082;5.066;2024-02-15T11:51:35;101315.28;;;17.36;100.00
65760;BME280;52496;51.082;5.066;2024-02-15T11:54:20;101310.44;;;17.45;100.00
65760;BME280;52496;51.082;5.066;2024-02-15T11:56:54;101296.03;;;17.51;100.00
65760;BME280;52496;51.082;5.066;2024-02-15T11:59:42;101296.97;;;17.63;100.00
65760;BME280;52496;51.082;5.066;2024-02-15T12:02:24;101292.75;;;17.74;100.00
65760;BME280;52496;51.082;5.066;2024-02-15T12:05:13;101298.63;;;17.96;100.00
65760;BME280;52496;51.082;5.066;2024-02-15T12:08:02;101292.88;;;18.11;100.00
65760;BME280;52496;51.082;5.066;2024-02-15T12:11:00;101279.53;;;18.09;100.00
65760;BME280;52496;51.082;5.066;2024-02-15T12:13:51;101277.50;;;18.05;100.00
65760;BME280;52496;51.082;5.066;2024-02-15T12:16:40;101284.41;;;18.01;100.00
65760;BME280;52496;51.082;5.066;2024-02-15T12:19:29;101284.28;;;17.96;100.00
65760;BME280;52496;51.082;5.066;2024-02-15T12:22:00;101279.44;;;17.98;100.00
65760;BME280;52496;51.082;5.066;2024-02-15T12:24:31;101280.81;;;18.07;100.00
65760;BME280;52496;51.082;5.066;2024-02-15T12:27:02;101269.41;;;18.23;100.00
65760;BME280;52496;51.082;5.066;2024-02-15T12:29:33;101276.75;;;18.34;100.00
65760;BME280;52496;51.082;5.066;2024-02-15T12:32:05;101265.50;;;18.38;100.00
65760;BME280;52496;51.082;5.066;2024-02-15T12:34:35;101259.50;;;18.36;100.00
65760;BME280;52496;51.082;5.066;2024-02-15T12:37:08;101257.22;;;18.32;100.00
65760;BME280;52496;51.082;5.066;2024-02-15T12:39:39;101249.78;;;18.28;100.00
65760;BME280;52496;51.082;5.066;2024-02-15T12:42:11;101241.91;;;18.26;100.00
65760;BME280;52496;51.082;5.066;2024-02-15T12:44:46;101242.47;;;18.28;100.00
65760;BME280;52496;51.082;5.066;2024-02-15T12:47:26;101239.47;;;18.37;100.00
65760;BME280;52496;51.082;5.066;2024-02-15T12:49:58;101234.66;;;18.39;100.00
65760;BME280;52496;51.082;5.066;2024-02-15T12:52:37;101222.94;;;18.45;100.00
65760;BME280;52496;51.082;5.066;2024-02-15T12:57:45;101220.19;;;18.63;100.00
65760;BME280;52496;51.082;5.066;2024-02-15T13:00:24;101212.56;;;18.72;100.00
65760;BME280;52496;51.082;5.066;2024-02-15T13:03:03;101213.84;;;18.69;100.00
65760;BME280;52496;51.082;5.066;2024-02-15T13:05:35;101223.94;;;18.62;100.00
65760;BME280;52496;51.082;5.066;2024-02-15T13:08:06;101214.47;;;18.53;100.00
65760;BME280;52496;51.082;5.066;2024-02-15T13:10:43;101220.06;;;18.40;100.00
65760;BME280;52496;51.082;5.066;2024-02-15T13:13:13;101206.47;;;18.28;100.00
65760;BME280;52496;51.082;5.066;2024-02-15T13:15:45;101207.00;;;18.18;100.00
65760;BME280;52496;51.082;5.066;2024-02-15T13:18:17;101200.38;;;18.14;100.00
65760;BME280;52496;51.082;5.066;2024-02-15T13:20:49;101191.28;;;18.08;100.00
65760;BME280;52496;51.082;5.066;2024-02-15T13:23:27;101188.22;;;18.05;100.00
65760;BME280;52496;51.082;5.066;2024-02-15T13:25:57;101176.97;;;18.01;100.00
65760;BME280;52496;51.082;5.066;2024-02-15T13:28:29;101182.03;;;17.98;100.00
65760;BME280;52496;51.082;5.066;2024-02-15T13:31:00;101182.03;;;17.98;100.00
65760;BME280;52496;51.082;5.066;2024-02-15T13:33:31;101187.81;;;18.01;100.00
65760;BME280;52496;51.082;5.066;2024-02-15T13:36:02;101183.38;;;18.07;100.00
65760;BME280;52496;51.082;5.066;2024-02-15T13:38:32;101166.16;;;18.20;100.00
65760;BME280;52496;51.082;5.066;2024-02-15T13:41:03;101161.31;;;18.40;100.00